Time;durP1;ratioP1;P1;durP2;ratioP2;P2;SDS_P1;SDS_P2;PMS_P1;PMS_P2;Temp;Humidity;BMP_temperature;BMP_pressure;BME280_temperature;BME280_humidity;BME280_pressure;Samples;Min_cycle;Max_cycle;Signal;HPM_P1;HPM_P2
2023/10/13 00:00:57;;;;;;;10.33;9.33;;;18.10;99.90;;;;;;5091359;28;20973;-77
2023/10/13 00:03:25;;;;;;;14.53;9.73;;;18.10;99.90;;;;;;5077317;28;20546;-79
2023/10/13 00:05:52;;;;;;;10.80;8.80;;;18.10;99.90;;;;;;5081104;28;20464;-78
2023/10/13 00:08:20;;;;;;;13.17;8.23;;;18.10;99.90;;;;;;5076402;28;20450;-78
2023/10/13 00:10:48;;;;;;;16.17;10.53;;;18.10;99.90;;;;;;5077062;28;20859;-80
2023/10/13 00:13:15;;;;;;;13.53;8.70;;;18.00;99.90;;;;;;5076570;28;20447;-79
2023/10/13 00:15:46;;;;;;;14.30;8.37;;;18.10;99.90;;;;;;5076611;28;20858;-79
2023/10/13 00:18:14;;;;;;;11.17;8.70;;;18.10;99.90;;;;;;5079163;28;20577;-78
2023/10/13 00:20:48;;;;;;;11.97;8.43;;;18.10;99.90;;;;;;5079383;28;20525;-80
2023/10/13 00:23:16;;;;;;;12.27;8.40;;;18.00;99.90;;;;;;5076628;28;20468;-79
2023/10/13 00:25:49;;;;;;;10.83;7.00;;;18.00;99.90;;;;;;5078682;28;20501;-77
2023/10/13 00:28:23;;;;;;;12.70;8.50;;;18.10;99.90;;;;;;5078229;28;20486;-78
2023/10/13 00:30:51;;;;;;;8.20;7.30;;;18.10;99.90;;;;;;5084754;28;20471;-79
2023/10/13 00:33:22;;;;;;;10.50;7.50;;;18.10;99.90;;;;;;5095821;28;20537;-78
2023/10/13 00:35:51;;;;;;;10.47;7.27;;;18.20;99.90;;;;;;5083506;28;20958;-79
2023/10/13 00:38:19;;;;;;;11.97;8.10;;;18.20;99.90;;;;;;5082603;28;20519;-78
2023/10/13 00:40:52;;;;;;;12.23;7.67;;;18.10;99.90;;;;;;5082475;28;20463;-78
2023/10/13 00:43:38;;;;;;;9.50;7.60;;;18.10;99.90;;;;;;5084670;28;20466;-78
2023/10/13 00:46:08;;;;;;;10.40;8.00;;;18.10;99.90;;;;;;5087312;28;20453;-79
2023/10/13 00:48:51;;;;;;;14.40;7.80;;;18.10;99.90;;;;;;5081174;28;20458;-79
2023/10/13 00:51:22;;;;;;;8.93;6.90;;;18.10;99.90;;;;;;5082523;28;20488;-79
2023/10/13 00:53:50;;;;;;;9.37;6.93;;;18.10;99.90;;;;;;5088691;28;20461;-78
2023/10/13 00:56:21;;;;;;;8.73;6.33;;;18.10;99.90;;;;;;5085716;28;20481;-77
2023/10/13 00:58:50;;;;;;;11.40;6.80;;;18.10;99.90;;;;;;5075012;28;20488;-78
2023/10/13 01:01:21;;;;;;;8.13;6.77;;;18.10;99.90;;;;;;5080552;28;20481;-78
2023/10/13 01:03:55;;;;;;;11.50;7.33;;;18.10;99.90;;;;;;5083526;28;20462;-78
2023/10/13 01:06:25;;;;;;;8.07;6.57;;;18.20;99.90;;;;;;5091506;28;20470;-80
2023/10/13 01:08:59;;;;;;;9.37;7.80;;;18.20;99.90;;;;;;5082341;28;20868;-77
2023/10/13 01:11:29;;;;;;;13.53;8.93;;;18.20;99.90;;;;;;5081897;28;20478;-77
2023/10/13 01:13:57;;;;;;;10.47;7.47;;;18.20;99.90;;;;;;5078867;28;20447;-77
2023/10/13 01:16:26;;;;;;;13.70;8.63;;;18.10;99.90;;;;;;5085478;28;20463;-78
2023/10/13 01:18:59;;;;;;;10.97;7.40;;;18.10;99.90;;;;;;5081194;28;20498;-77
2023/10/13 01:21:27;;;;;;;8.77;7.03;;;18.10;99.90;;;;;;5083519;28;21069;-77
2023/10/13 01:23:55;;;;;;;14.33;8.63;;;18.20;99.90;;;;;;5086995;28;20517;-78
2023/10/13 01:26:24;;;;;;;13.80;7.73;;;18.20;99.90;;;;;;5079565;28;20451;-79
2023/10/13 01:28:51;;;;;;;11.10;8.13;;;18.20;99.90;;;;;;5074653;28;20959;-78
2023/10/13 01:31:29;;;;;;;12.23;8.53;;;18.20;99.90;;;;;;5076351;28;20511;-78
2023/10/13 01:33:58;;;;;;;12.97;7.70;;;18.20;99.90;;;;;;5078213;28;20438;-78
2023/10/13 01:36:25;;;;;;;9.77;8.37;;;18.30;99.90;;;;;;5074264;28;20451;-78
2023/10/13 01:38:52;;;;;;;9.00;8.10;;;18.30;99.90;;;;;;5081536;28;20557;-78
2023/10/13 01:41:21;;;;;;;8.80;7.70;;;18.30;99.90;;;;;;5076247;28;20532;-77
2023/10/13 01:43:48;;;;;;;10.50;8.20;;;18.30;99.90;;;;;;5076426;28;20493;-78
2023/10/13 01:46:15;;;;;;;10.50;9.00;;;18.30;99.90;;;;;;5076209;28;20500;-77
2023/10/13 01:48:44;;;;;;;12.80;7.90;;;18.20;99.90;;;;;;5074206;28;20994;-77
2023/10/13 01:51:11;;;;;;;9.50;6.90;;;18.30;99.90;;;;;;5074799;28;20477;-78
2023/10/13 01:53:38;;;;;;;8.63;7.73;;;18.20;99.90;;;;;;5076963;28;20450;-78
2023/10/13 01:56:10;;;;;;;12.70;7.50;;;18.30;99.90;;;;;;5078530;28;20446;-78
2023/10/13 01:58:41;;;;;;;10.53;7.90;;;18.30;99.90;;;;;;5082714;28;20479;-78
2023/10/13 02:01:07;;;;;;;9.30;7.90;;;18.40;99.90;;;;;;5073690;28;20557;-79
2023/10/13 02:03:41;;;;;;;11.00;8.20;;;18.30;99.90;;;;;;5074057;28;20450;-78
2023/10/13 02:06:10;;;;;;;9.80;7.10;;;18.30;99.90;;;;;;5078230;28;20463;-79
2023/10/13 02:08:40;;;;;;;8.50;7.00;;;18.30;99.90;;;;;;5086543;28;20453;-78
2023/10/13 02:11:07;;;;;;;13.30;7.70;;;18.30;99.90;;;;;;5094062;28;20470;-77
2023/10/13 02:13:41;;;;;;;12.83;8.77;;;18.30;99.90;;;;;;5076001;28;20451;-77
2023/10/13 02:16:09;;;;;;;10.13;7.90;;;18.20;99.90;;;;;;5073060;28;20449;-80
2023/10/13 02:18:41;;;;;;;8.50;7.33;;;18.30;99.90;;;;;;5077134;28;20462;-77
2023/10/13 02:21:12;;;;;;;12.00;7.87;;;18.30;99.90;;;;;;5082512;28;20845;-77
2023/10/13 02:23:43;;;;;;;8.27;7.47;;;18.20;99.90;;;;;;5080453;28;20486;-78
2023/10/13 02:26:12;;;;;;;11.20;8.47;;;18.30;99.90;;;;;;5076305;28;20450;-77
2023/10/13 02:28:39;;;;;;;11.17;7.97;;;18.20;99.90;;;;;;5086107;28;20837;-77
2023/10/13 02:31:07;;;;;;;9.43;7.43;;;18.20;99.90;;;;;;5084858;28;20676;-80
2023/10/13 02:33:34;;;;;;;11.13;8.57;;;18.30;99.90;;;;;;5076230;28;20455;-78
2023/10/13 02:36:05;;;;;;;11.07;7.50;;;18.30;99.90;;;;;;5077960;28;20460;-77
2023/10/13 02:38:34;;;;;;;13.40;9.23;;;18.30;99.90;;;;;;5075858;28;20451;-80
2023/10/13 02:41:06;;;;;;;9.07;7.87;;;18.20;99.90;;;;;;5077338;28;20478;-80
2023/10/13 02:43:33;;;;;;;11.43;8.00;;;18.30;99.90;;;;;;5072973;28;20959;-79
2023/10/13 02:46:01;;;;;;;11.40;8.10;;;18.40;99.90;;;;;;5077790;28;20540;-77
2023/10/13 02:48:30;;;;;;;9.13;6.93;;;18.40;99.90;;;;;;5074917;28;20462;-77
2023/10/13 02:51:05;;;;;;;8.60;7.27;;;18.30;99.90;;;;;;5081893;28;20548;-79
2023/10/13 02:53:31;;;;;;;11.43;7.30;;;18.30;99.90;;;;;;5076451;28;20889;-77
2023/10/13 02:56:04;;;;;;;10.93;7.77;;;18.30;99.90;;;;;;5076619;28;20486;-79
2023/10/13 02:58:38;;;;;;;7.33;6.63;;;18.30;99.90;;;;;;5078326;28;20294;-78
2023/10/13 03:01:16;;;;;;;13.17;7.20;;;18.40;99.90;;;;;;5081787;28;20482;-78
2023/10/13 03:03:47;;;;;;;8.73;6.77;;;18.40;99.90;;;;;;5078737;28;20537;-81
2023/10/13 03:06:15;;;;;;;15.63;7.57;;;18.40;99.90;;;;;;5078256;28;20454;-80
2023/10/13 03:08:42;;;;;;;8.40;7.07;;;18.30;99.90;;;;;;5084243;28;20462;-78
2023/10/13 03:11:11;;;;;;;13.10;7.33;;;18.40;99.90;;;;;;5093422;28;20576;-79
2023/10/13 03:13:37;;;;;;;7.53;6.50;;;18.40;99.90;;;;;;5077014;28;20462;-79
2023/10/13 03:16:15;;;;;;;7.73;6.33;;;18.40;99.90;;;;;;5080154;28;20450;-77
2023/10/13 03:18:51;;;;;;;9.03;7.37;;;18.40;99.90;;;;;;5075666;28;20449;-76
2023/10/13 03:21:28;;;;;;;12.40;8.00;;;18.40;99.90;;;;;;5072502;28;20477;-77
2023/10/13 03:23:55;;;;;;;10.80;7.43;;;18.30;99.90;;;;;;5072674;28;20511;-79
2023/10/13 03:26:22;;;;;;;9.50;7.10;;;18.30;99.90;;;;;;5088699;28;20481;-77
2023/10/13 03:28:52;;;;;;;17.07;8.80;;;18.20;99.90;;;;;;5074286;28;20450;-78
2023/10/13 03:31:22;;;;;;;8.70;7.80;;;18.20;99.90;;;;;;5072269;28;20502;-78
2023/10/13 03:33:56;;;;;;;12.27;8.70;;;18.20;99.90;;;;;;5075578;28;20447;-78
2023/10/13 03:36:56;;;;;;;9.10;7.63;;;18.20;99.90;;;;;;5072115;28;20457;-78
2023/10/13 03:39:28;;;;;;;8.37;6.97;;;18.20;99.90;;;;;;5074730;28;20553;-81
2023/10/13 03:41:56;;;;;;;10.70;7.90;;;18.20;99.90;;;;;;5084001;28;20469;-79
2023/10/13 03:44:23;;;;;;;9.83;7.07;;;18.20;99.90;;;;;;5072578;28;20886;-80
2023/10/13 03:46:54;;;;;;;12.93;7.33;;;18.10;99.90;;;;;;5077380;28;20465;-78
2023/10/13 03:49:21;;;;;;;11.50;8.60;;;18.10;99.90;;;;;;5082974;28;20460;-78
2023/10/13 03:51:53;;;;;;;10.80;8.57;;;18.00;99.90;;;;;;5081605;28;20477;-80
2023/10/13 03:54:20;;;;;;;10.53;8.70;;;18.00;99.90;;;;;;5084468;28;20488;-78
2023/10/13 03:56:52;;;;;;;11.13;9.93;;;18.10;99.90;;;;;;5080241;28;20447;-78
2023/10/13 03:59:19;;;;;;;10.50;9.27;;;17.90;99.90;;;;;;5072943;28;20478;-78
2023/10/13 04:01:58;;;;;;;12.27;9.97;;;17.90;99.90;;;;;;5078454;28;20927;-76
2023/10/13 04:04:34;;;;;;;10.17;8.33;;;17.90;99.90;;;;;;5086773;28;20457;-77
2023/10/13 04:07:39;;;;;;;13.17;10.20;;;18.00;99.90;;;;;;5081995;28;20476;-78
2023/10/13 04:15:43;;;;;;;12.43;8.50;;;18.00;99.90;;;;;;5079816;28;20509;-78
2023/10/13 04:18:30;;;;;;;10.60;8.47;;;18.00;99.90;;;;;;5080950;28;20488;-78
2023/10/13 04:21:18;;;;;;;10.80;9.03;;;18.00;99.90;;;;;;5082269;28;20509;-80
2023/10/13 04:26:37;;;;;;;9.47;8.47;;;18.00;99.90;;;;;;5084161;28;20603;-80
2023/10/13 04:29:10;;;;;;;10.10;9.10;;;18.00;99.90;;;;;;5083637;28;20460;-79
2023/10/13 04:31:59;;;;;;;11.23;8.40;;;18.00;99.90;;;;;;5090737;28;20500;-78
2023/10/13 04:34:34;;;;;;;10.40;8.40;;;18.00;99.90;;;;;;5082477;28;20462;-80
2023/10/13 04:37:23;;;;;;;11.17;8.83;;;18.00;99.90;;;;;;5078471;28;20446;-78
2023/10/13 04:39:57;;;;;;;10.20;8.40;;;18.00;99.90;;;;;;5082422;28;20477;-78
2023/10/13 04:42:39;;;;;;;9.40;8.50;;;18.00;99.90;;;;;;5088616;28;20482;-79
2023/10/13 04:45:27;;;;;;;9.83;8.70;;;18.00;99.90;;;;;;5084508;28;20456;-78
2023/10/13 04:48:13;;;;;;;7.80;7.10;;;18.00;99.90;;;;;;5094632;28;20462;-79
2023/10/13 04:50:44;;;;;;;9.80;8.80;;;18.00;99.90;;;;;;5078804;28;20500;-79
2023/10/13 04:53:27;;;;;;;12.77;8.13;;;17.90;99.90;;;;;;5080590;28;20981;-81
2023/10/13 04:56:38;;;;;;;10.33;7.90;;;18.00;99.90;;;;;;5084422;28;20537;-79
2023/10/13 05:04:38;;;;;;;11.90;8.80;;;18.00;99.90;;;;;;5091604;28;20429;-79
2023/10/13 05:46:20;;;;;;;11.20;9.67;;;17.90;99.90;;;;;;5080657;28;20489;-80
2023/10/13 05:48:52;;;;;;;12.30;9.20;;;18.00;99.90;;;;;;5078794;28;20468;-81
2023/10/13 05:51:43;;;;;;;11.60;9.10;;;18.00;99.90;;;;;;5087112;28;20988;-80
2023/10/13 06:29:56;;;;;;;12.33;6.80;;;18.00;99.90;;;;;;5090330;28;20820;-80
2023/10/13 06:32:25;;;;;;;13.90;8.03;;;18.00;99.90;;;;;;5083596;28;21096;-82
2023/10/13 06:34:57;;;;;;;11.77;6.77;;;18.00;99.90;;;;;;5079453;28;20985;-82
2023/10/13 06:37:25;;;;;;;14.93;7.43;;;18.00;99.90;;;;;;5084680;28;20534;-81
2023/10/13 06:39:56;;;;;;;8.97;6.63;;;18.00;99.90;;;;;;5088383;28;20527;-81
2023/10/13 06:42:27;;;;;;;8.80;6.53;;;18.00;99.90;;;;;;5090024;28;20471;-81
2023/10/13 06:44:54;;;;;;;10.60;7.43;;;18.00;99.90;;;;;;5095830;28;20496;-80
2023/10/13 06:47:21;;;;;;;14.07;7.37;;;18.00;99.90;;;;;;5093500;28;20573;-81
2023/10/13 06:49:51;;;;;;;11.30;6.93;;;18.00;99.90;;;;;;5100732;28;20581;-79
2023/10/13 06:52:19;;;;;;;11.30;6.70;;;18.00;99.90;;;;;;5092567;28;20485;-80
2023/10/13 06:54:46;;;;;;;7.47;6.17;;;18.00;99.90;;;;;;5101498;28;20529;-80
2023/10/13 06:57:20;;;;;;;11.63;7.30;;;18.00;99.90;;;;;;5096657;28;20463;-80
2023/10/13 06:59:47;;;;;;;8.27;6.93;;;18.10;99.90;;;;;;5075139;28;20565;-79
2023/10/13 07:02:21;;;;;;;11.50;8.30;;;18.00;99.90;;;;;;5075139;28;20477;-80
2023/10/13 07:04:48;;;;;;;14.70;7.97;;;18.00;99.90;;;;;;5075909;28;20454;-80
2023/10/13 07:07:15;;;;;;;10.53;7.93;;;18.10;99.90;;;;;;5075073;28;20447;-80
2023/10/13 07:09:49;;;;;;;8.83;7.80;;;18.10;99.90;;;;;;5075329;28;20462;-79
2023/10/13 07:12:22;;;;;;;11.20;8.60;;;18.20;99.90;;;;;;5085113;28;20897;-81
2023/10/13 07:14:58;;;;;;;12.50;7.60;;;18.20;99.90;;;;;;5082196;28;20453;-81
2023/10/13 07:17:25;;;;;;;11.80;7.77;;;18.30;99.90;;;;;;5087390;28;20508;-81
2023/10/13 07:20:01;;;;;;;14.93;8.30;;;18.30;99.90;;;;;;5080234;28;20487;-81
2023/10/13 07:22:30;;;;;;;14.03;10.47;;;18.40;99.90;;;;;;5084183;28;20477;-80
2023/10/13 07:24:59;;;;;;;10.17;8.07;;;18.40;99.90;;;;;;5092562;28;20462;-80
2023/10/13 07:27:26;;;;;;;12.50;8.23;;;18.40;99.90;;;;;;5086791;28;20457;-79
2023/10/13 07:30:05;;;;;;;13.67;9.37;;;18.40;99.90;;;;;;5077059;28;20458;-81
2023/10/13 07:32:33;;;;;;;14.60;9.17;;;18.50;99.90;;;;;;5078766;28;21073;-80
2023/10/13 07:35:08;;;;;;;14.43;8.10;;;18.50;99.90;;;;;;5060131;28;20467;-80
2023/10/13 07:37:35;;;;;;;10.70;8.33;;;18.60;99.90;;;;;;5081880;28;20445;-82
2023/10/13 07:40:21;;;;;;;14.40;9.70;;;18.60;99.90;;;;;;5082475;28;20505;-80
2023/10/13 07:42:48;;;;;;;14.53;8.90;;;18.60;99.90;;;;;;5087789;28;20481;-80
2023/10/13 07:45:18;;;;;;;11.00;9.17;;;18.70;99.90;;;;;;5080225;28;20495;-79
2023/10/13 07:47:46;;;;;;;11.03;7.13;;;18.70;99.90;;;;;;5079335;28;20447;-79
2023/10/13 07:50:13;;;;;;;9.93;8.00;;;18.80;99.90;;;;;;5080939;28;20892;-79
2023/10/13 07:52:58;;;;;;;18.07;9.33;;;18.90;99.90;;;;;;5082101;28;20504;-79
2023/10/13 07:55:26;;;;;;;10.17;7.93;;;18.90;99.90;;;;;;5078686;28;20436;-79
2023/10/13 07:57:56;;;;;;;12.03;9.03;;;19.00;99.90;;;;;;5079047;28;20445;-79
2023/10/13 08:00:46;;;;;;;10.47;7.57;;;19.00;99.90;;;;;;5079193;28;20491;-79
2023/10/13 08:03:31;;;;;;;13.33;8.37;;;19.10;99.90;;;;;;5088953;28;20464;-79
2023/10/13 08:06:04;;;;;;;13.63;7.80;;;19.00;99.90;;;;;;5088746;28;20458;-79
2023/10/13 08:08:37;;;;;;;13.87;6.70;;;19.10;99.90;;;;;;5092127;28;20450;-80
2023/10/13 08:11:24;;;;;;;9.20;6.20;;;19.00;99.90;;;;;;5092293;28;20458;-79
2023/10/13 08:13:53;;;;;;;10.70;7.07;;;19.00;99.90;;;;;;5096153;28;20511;-78
2023/10/13 08:16:22;;;;;;;13.40;7.80;;;19.00;99.90;;;;;;5094327;28;21002;-78
2023/10/13 08:18:50;;;;;;;9.63;6.97;;;19.00;99.90;;;;;;5076693;28;20455;-77
2023/10/13 08:21:22;;;;;;;13.30;7.00;;;19.10;99.90;;;;;;5077771;28;20501;-79
2023/10/13 08:23:59;;;;;;;9.47;7.10;;;19.10;99.90;;;;;;5077147;28;20451;-79
2023/10/13 08:26:56;;;;;;;14.63;6.80;;;19.10;99.90;;;;;;5077979;28;20918;-79
2023/10/13 08:32:23;;;;;;;11.03;7.20;;;19.20;99.90;;;;;;5034872;28;20543;-79
2023/10/13 08:35:09;;;;;;;11.90;6.43;;;19.20;99.90;;;;;;5086081;28;20448;-79
2023/10/13 08:37:46;;;;;;;11.57;6.80;;;19.20;99.90;;;;;;5098474;28;20507;-80
2023/10/13 08:40:32;;;;;;;13.80;6.70;;;19.20;99.90;;;;;;5097432;28;21075;-78
2023/10/13 08:43:10;;;;;;;13.10;6.30;;;19.20;99.90;;;;;;5098882;28;20474;-79
2023/10/13 08:45:54;;;;;;;10.50;5.70;;;19.20;99.90;;;;;;5077007;28;20451;-80
2023/10/13 08:48:26;;;;;;;9.33;7.30;;;19.30;99.90;;;;;;5075300;28;20529;-79
2023/10/13 08:50:55;;;;;;;15.57;6.63;;;19.30;99.90;;;;;;5075706;28;20455;-78
2023/10/13 08:53:31;;;;;;;9.50;5.23;;;19.30;99.90;;;;;;5076679;28;20498;-78
2023/10/13 08:56:05;;;;;;;14.93;5.93;;;19.30;99.90;;;;;;5076458;28;20458;-79
2023/10/13 09:04:33;;;;;;;14.33;5.90;;;19.60;99.90;;;;;;5111536;27;20519;-79
2023/10/13 09:07:07;;;;;;;15.77;6.07;;;19.60;99.90;;;;;;5112604;28;20941;-79
2023/10/13 09:09:59;;;;;;;12.20;6.00;;;19.70;99.90;;;;;;5112651;28;20445;-78
2023/10/13 09:12:35;;;;;;;13.03;5.73;;;19.80;99.90;;;;;;5112717;28;20981;-79
2023/10/13 09:15:06;;;;;;;12.07;6.80;;;19.80;99.90;;;;;;5104920;28;20511;-80
2023/10/13 09:17:42;;;;;;;7.07;5.03;;;19.90;99.90;;;;;;5099522;28;20590;-79
2023/10/13 09:20:32;;;;;;;14.33;5.80;;;19.90;99.90;;;;;;5100154;28;20897;-80
2023/10/13 09:23:07;;;;;;;17.53;6.40;;;20.00;99.90;;;;;;5090206;28;20514;-79
2023/10/13 09:25:36;;;;;;;8.03;4.50;;;20.10;99.90;;;;;;5092875;28;20491;-79
2023/10/13 09:28:04;;;;;;;15.10;5.57;;;20.20;99.90;;;;;;5103284;28;20995;-79
2023/10/13 09:30:31;;;;;;;14.70;5.40;;;20.40;99.90;;;;;;5091269;28;20530;-80
2023/10/13 09:33:01;;;;;;;8.60;5.13;;;20.50;99.90;;;;;;5100297;28;20462;-78
2023/10/13 09:35:33;;;;;;;7.30;4.97;;;20.60;99.90;;;;;;5087095;28;20528;-79
2023/10/13 09:38:02;;;;;;;8.53;5.37;;;20.70;99.90;;;;;;5097494;28;20454;-79
2023/10/13 09:40:34;;;;;;;15.17;5.40;;;20.70;99.90;;;;;;5088605;28;20453;-79
2023/10/13 09:43:07;;;;;;;10.60;5.30;;;20.80;99.90;;;;;;5087610;28;20484;-79
2023/10/13 09:45:38;;;;;;;11.30;5.17;;;20.90;99.90;;;;;;5092617;28;20473;-79
2023/10/13 09:48:16;;;;;;;8.70;5.30;;;20.90;99.90;;;;;;5093653;28;20453;-79
2023/10/13 09:50:48;;;;;;;10.93;5.50;;;21.00;99.90;;;;;;5109612;28;20452;-79
2023/10/13 09:53:18;;;;;;;8.57;4.40;;;21.10;99.90;;;;;;5098876;28;20446;-78
2023/10/13 09:55:47;;;;;;;12.23;5.10;;;21.20;99.90;;;;;;5106693;28;20933;-78
2023/10/13 09:58:18;;;;;;;16.70;4.80;;;21.30;99.90;;;;;;5094252;28;20454;-79
2023/10/13 10:00:57;;;;;;;7.67;4.97;;;21.40;99.90;;;;;;5091174;28;20461;-78
2023/10/13 10:03:39;;;;;;;7.60;4.50;;;21.50;99.90;;;;;;5091744;28;20481;-78
2023/10/13 10:06:13;;;;;;;13.47;6.70;;;21.60;99.90;;;;;;5091415;28;20806;-79
2023/10/13 10:08:48;;;;;;;10.33;5.43;;;21.70;99.90;;;;;;5088908;28;20450;-78
2023/10/13 10:11:58;;;;;;;6.97;4.60;;;21.80;99.90;;;;;;5093740;28;20528;-79
2023/10/13 10:14:39;;;;;;;7.30;4.00;;;22.00;99.90;;;;;;5089199;28;20528;-80
2023/10/13 10:17:07;;;;;;;13.13;5.20;;;22.20;99.90;;;;;;5078769;28;20492;-80
2023/10/13 10:19:35;;;;;;;11.70;5.70;;;22.40;99.90;;;;;;5089423;28;20454;-79
2023/10/13 10:22:16;;;;;;;10.60;5.30;;;22.70;99.90;;;;;;5091162;28;20480;-79
2023/10/13 10:24:43;;;;;;;12.03;4.57;;;23.00;99.90;;;;;;5094321;28;20964;-80
2023/10/13 10:27:14;;;;;;;11.07;4.60;;;23.50;99.90;;;;;;5078749;28;20447;-79
2023/10/13 10:29:41;;;;;;;15.53;5.53;;;23.60;99.90;;;;;;5096013;28;20449;-80
2023/10/13 10:32:14;;;;;;;10.70;5.43;;;23.40;99.90;;;;;;5080828;28;20990;-79
2023/10/13 10:34:41;;;;;;;10.60;4.90;;;23.20;99.90;;;;;;5076422;28;20953;-79
2023/10/13 10:37:10;;;;;;;9.13;5.23;;;23.10;99.90;;;;;;5082963;28;20846;-79
2023/10/13 10:39:44;;;;;;;15.10;5.10;;;22.90;99.90;;;;;;5079167;28;20814;-78
2023/10/13 10:42:18;;;;;;;11.40;5.20;;;22.80;99.90;;;;;;5086584;28;21049;-78
2023/10/13 10:44:47;;;;;;;10.73;5.10;;;22.70;99.90;;;;;;5077688;28;20529;-78
2023/10/13 10:47:19;;;;;;;11.80;5.40;;;22.60;99.90;;;;;;5076366;28;20454;-79
2023/10/13 10:49:47;;;;;;;9.10;5.43;;;22.60;99.90;;;;;;5066532;28;20447;-78
2023/10/13 10:52:21;;;;;;;8.30;5.30;;;22.50;99.90;;;;;;5078873;28;20524;-78
2023/10/13 10:54:58;;;;;;;10.33;6.33;;;22.50;99.90;;;;;;5077904;28;20442;-78
2023/10/13 10:57:28;;;;;;;13.27;5.83;;;22.40;99.90;;;;;;5074553;28;20451;-78
2023/10/13 11:00:11;;;;;;;9.07;5.83;;;22.40;99.90;;;;;;5080333;28;20547;-79
2023/10/13 11:02:38;;;;;;;12.80;5.87;;;22.30;99.90;;;;;;5075457;28;20616;-77
2023/10/13 11:05:06;;;;;;;9.80;5.70;;;22.50;99.90;;;;;;5070485;28;20450;-78
2023/10/13 11:07:35;;;;;;;10.30;5.63;;;22.70;99.90;;;;;;5075358;28;20462;-79
2023/10/13 11:10:12;;;;;;;9.23;5.50;;;22.70;99.90;;;;;;5070919;28;21005;-81
2023/10/13 11:12:39;;;;;;;9.93;6.17;;;22.70;99.90;;;;;;5071118;28;20477;-79
2023/10/13 11:15:13;;;;;;;10.40;6.10;;;22.90;99.90;;;;;;5074571;28;20887;-79
2023/10/13 11:17:48;;;;;;;10.13;5.67;;;22.90;99.90;;;;;;5076312;28;20450;-78
2023/10/13 11:20:25;;;;;;;9.23;6.00;;;22.90;99.90;;;;;;5076728;28;20519;-79
2023/10/13 11:22:53;;;;;;;10.47;6.20;;;23.00;99.90;;;;;;5084730;28;20498;-79
2023/10/13 11:25:23;;;;;;;11.90;6.03;;;23.10;99.90;;;;;;5078561;28;20451;-79
2023/10/13 11:28:06;;;;;;;11.00;6.13;;;23.30;99.90;;;;;;5076120;28;20474;-79
2023/10/13 11:30:40;;;;;;;8.93;6.37;;;23.40;99.90;;;;;;5077744;28;20445;-79
2023/10/13 11:33:09;;;;;;;10.27;6.30;;;23.30;99.90;;;;;;5079271;28;20472;-80
2023/10/13 11:35:55;;;;;;;9.27;6.37;;;23.20;99.90;;;;;;5078562;28;20980;-79
2023/10/13 11:38:28;;;;;;;9.07;6.03;;;23.30;99.90;;;;;;5078142;28;20439;-79
2023/10/13 11:41:15;;;;;;;9.73;6.00;;;23.50;99.90;;;;;;5074919;28;20442;-79
2023/10/13 11:49:24;;;;;;;11.53;6.47;;;24.80;99.90;;;;;;5082140;28;20425;-79
2023/10/13 11:51:51;;;;;;;9.97;5.83;;;24.90;99.90;;;;;;5069383;28;20471;-79
2023/10/13 11:54:21;;;;;;;10.43;5.50;;;25.40;99.90;;;;;;5071716;28;20454;-80
2023/10/13 11:56:50;;;;;;;9.10;5.77;;;26.10;99.90;;;;;;5075413;28;20451;-81
2023/10/13 11:59:17;;;;;;;14.53;5.80;;;26.70;99.90;;;;;;5076215;28;21125;-81
2023/10/13 12:04:40;;;;;;;11.03;5.13;;;27.70;99.90;;;;;;5078309;28;20510;-81
2023/10/13 12:07:17;;;;;;;11.57;5.50;;;27.90;99.90;;;;;;5095468;28;20836;-82
2023/10/13 12:10:06;;;;;;;9.87;4.57;;;28.30;99.90;;;;;;5082189;28;20492;-83
2023/10/13 12:12:40;;;;;;;11.20;5.50;;;28.40;99.90;;;;;;5086419;28;20485;-82
2023/10/13 12:15:14;;;;;;;12.70;6.00;;;28.80;99.90;;;;;;5083448;28;20512;-83
2023/10/13 12:17:44;;;;;;;12.90;5.60;;;29.10;99.90;;;;;;5098936;28;20453;-80
2023/10/13 12:20:18;;;;;;;8.80;5.53;;;29.30;99.90;;;;;;5084670;28;20455;-80
2023/10/13 12:22:54;;;;;;;12.50;5.80;;;29.40;99.90;;;;;;5090313;28;20476;-82
2023/10/13 12:25:44;;;;;;;8.60;5.00;;;29.30;99.90;;;;;;5088267;28;20830;-79
2023/10/13 12:28:18;;;;;;;12.97;6.90;;;29.00;99.90;;;;;;5078587;28;20447;-80
2023/10/13 12:30:49;;;;;;;11.53;5.60;;;28.50;99.90;;;;;;5080163;28;20467;-81
2023/10/13 12:33:24;;;;;;;9.77;6.17;;;28.30;99.90;;;;;;5078424;28;20446;-80
2023/10/13 12:36:03;;;;;;;11.87;6.40;;;28.30;99.90;;;;;;5086798;28;20457;-81
2023/10/13 12:38:50;;;;;;;7.80;4.50;;;28.60;99.90;;;;;;5075762;28;20446;-79
2023/10/13 12:49:52;;;;;;;14.17;5.60;;;28.60;99.90;;;;;;5077910;28;20430;-80
2023/10/13 12:52:19;;;;;;;10.37;4.43;;;28.30;99.90;;;;;;5076284;28;20855;-80
2023/10/13 12:54:54;;;;;;;8.20;4.50;;;28.20;99.90;;;;;;5075954;28;20967;-82
2023/10/13 12:57:23;;;;;;;9.90;5.70;;;27.90;99.90;;;;;;5079021;28;20463;-80
2023/10/13 12:59:53;;;;;;;13.57;5.50;;;27.40;99.90;;;;;;5075895;28;20455;-80
2023/10/13 13:02:20;;;;;;;13.07;5.33;;;27.10;99.90;;;;;;5080517;28;20475;-79
2023/10/13 13:04:51;;;;;;;10.77;5.13;;;26.80;99.90;;;;;;5076552;28;20521;-81
2023/10/13 13:07:18;;;;;;;12.20;5.67;;;26.30;99.90;;;;;;5087380;28;20460;-80
2023/10/13 13:09:45;;;;;;;12.07;5.77;;;26.00;99.90;;;;;;5076585;28;20546;-80
2023/10/13 13:12:12;;;;;;;14.67;5.50;;;25.60;99.90;;;;;;5084043;28;20504;-81
2023/10/13 13:14:45;;;;;;;9.67;5.03;;;25.40;99.90;;;;;;5082281;28;20447;-79
2023/10/13 13:17:13;;;;;;;15.37;5.37;;;25.30;99.90;;;;;;5082870;28;20584;-80
2023/10/13 13:19:40;;;;;;;11.23;6.10;;;25.20;99.90;;;;;;5080210;28;20893;-81
2023/10/13 13:22:11;;;;;;;10.13;5.87;;;25.30;99.90;;;;;;5076757;28;20494;-80
2023/10/13 13:24:43;;;;;;;11.73;4.83;;;25.30;99.90;;;;;;5081247;28;20555;-81
2023/10/13 13:27:13;;;;;;;9.00;5.10;;;25.30;99.90;;;;;;5075188;28;20447;-79
2023/10/13 13:29:41;;;;;;;9.80;5.33;;;25.00;99.90;;;;;;5077407;28;20457;-79
2023/10/13 13:32:17;;;;;;;11.43;5.60;;;24.90;99.90;;;;;;5076982;28;20474;-80
2023/10/13 13:34:44;;;;;;;11.50;5.87;;;25.00;99.90;;;;;;5082580;28;20974;-80
2023/10/13 13:37:12;;;;;;;7.70;4.80;;;25.00;99.90;;;;;;5079280;28;20450;-79
2023/10/13 13:39:43;;;;;;;13.03;5.73;;;25.30;99.90;;;;;;5088053;28;20438;-81
2023/10/13 13:42:10;;;;;;;13.30;5.77;;;25.90;99.90;;;;;;5077386;28;20475;-81
2023/10/13 13:44:37;;;;;;;10.37;5.27;;;25.70;99.90;;;;;;5074925;28;20481;-81
2023/10/13 13:47:11;;;;;;;13.20;4.80;;;25.40;99.90;;;;;;5073398;28;20455;-80
2023/10/13 13:49:40;;;;;;;12.30;5.73;;;25.20;99.90;;;;;;5084376;28;20454;-81
2023/10/13 13:52:07;;;;;;;9.93;5.70;;;25.10;99.90;;;;;;5077562;28;20851;-81
2023/10/13 13:54:34;;;;;;;16.33;5.20;;;24.90;99.90;;;;;;5081115;28;20442;-82
2023/10/13 13:57:01;;;;;;;12.10;6.10;;;24.80;99.90;;;;;;5079990;28;20455;-79
2023/10/13 13:59:33;;;;;;;13.90;5.50;;;24.60;99.90;;;;;;5081097;28;20446;-81
2023/10/13 14:02:05;;;;;;;14.33;6.50;;;24.40;99.90;;;;;;5075058;28;20855;-81
2023/10/13 14:04:34;;;;;;;12.93;5.33;;;24.30;99.90;;;;;;5076932;28;20475;-81
2023/10/13 14:07:06;;;;;;;12.93;5.50;;;24.20;99.90;;;;;;5075102;28;20451;-81
2023/10/13 14:09:36;;;;;;;17.20;5.97;;;24.10;99.90;;;;;;5078730;28;20534;-81
2023/10/13 14:14:50;;;;;;;11.23;5.30;;;24.20;99.90;;;;;;5074747;28;20442;-80
2023/10/13 14:17:17;;;;;;;9.60;5.37;;;24.20;99.90;;;;;;5077996;28;20455;-80
2023/10/13 14:19:45;;;;;;;14.10;4.40;;;24.20;99.90;;;;;;5075356;28;20451;-80
2023/10/13 14:22:13;;;;;;;15.57;5.57;;;24.20;99.90;;;;;;5078037;28;20484;-78
2023/10/13 14:24:47;;;;;;;13.80;5.47;;;24.20;99.90;;;;;;5073879;28;20485;-79
2023/10/13 14:27:17;;;;;;;13.40;5.67;;;24.10;99.90;;;;;;5080061;28;20531;-80
2023/10/13 14:29:44;;;;;;;13.33;5.13;;;24.10;99.90;;;;;;5077290;28;20459;-80
2023/10/13 14:32:15;;;;;;;8.70;5.30;;;23.90;99.90;;;;;;5077822;28;21115;-80
2023/10/13 14:34:43;;;;;;;13.53;4.60;;;24.00;99.90;;;;;;5075616;28;20454;-77
2023/10/13 14:37:12;;;;;;;10.50;5.13;;;23.90;99.90;;;;;;5075924;28;20485;-77
2023/10/13 14:39:39;;;;;;;9.90;5.40;;;24.00;99.90;;;;;;5074850;28;20451;-78
2023/10/13 14:42:06;;;;;;;10.77;5.00;;;24.00;99.90;;;;;;5075210;28;20883;-77
2023/10/13 14:44:33;;;;;;;11.53;4.80;;;23.80;99.90;;;;;;5073625;28;20860;-79
2023/10/13 14:47:00;;;;;;;14.47;4.93;;;23.80;99.90;;;;;;5075163;28;20841;-79
2023/10/13 14:49:28;;;;;;;10.03;5.43;;;23.70;99.90;;;;;;5075245;28;20443;-78
2023/10/13 14:51:55;;;;;;;8.60;5.20;;;23.60;99.90;;;;;;5068867;28;20561;-79
2023/10/13 14:54:32;;;;;;;9.90;5.37;;;23.50;99.90;;;;;;5074333;28;20451;-79
2023/10/13 14:57:00;;;;;;;9.80;5.10;;;23.40;99.90;;;;;;5072347;28;20832;-78
2023/10/13 14:59:32;;;;;;;13.50;5.30;;;23.30;99.90;;;;;;5073023;28;20454;-78
2023/10/13 15:02:00;;;;;;;14.40;4.90;;;23.20;99.90;;;;;;5074340;28;20482;-79
2023/10/13 15:04:32;;;;;;;12.00;4.70;;;23.20;99.90;;;;;;5076662;28;20482;-78